Time;durP1;ratioP1;P1;durP2;ratioP2;P2;SDS_P1;SDS_P2;PMS_P1;PMS_P2;Temp;Humidity;BMP_temperature;BMP_pressure;BME280_temperature;BME280_humidity;BME280_pressure;Samples;Min_cycle;Max_cycle;Signal;HPM_P1;HPM_P2
2022/09/18 00:01:12;;;;;;;6.25;2.00;;;;;;;;;;5069189;28;20047;-75
2022/09/18 00:03:39;;;;;;;9.65;1.75;;;;;;;;;;5067675;28;20032;-75
2022/09/18 00:06:12;;;;;;;13.98;2.20;;;;;;;;;;5067436;28;20025;-76
2022/09/18 00:08:39;;;;;;;10.40;1.95;;;;;;;;;;5068529;28;20036;-76
2022/09/18 00:11:07;;;;;;;11.15;2.42;;;;;;;;;;5068795;28;20021;-74
2022/09/18 00:13:34;;;;;;;12.68;2.58;;;;;;;;;;5069978;28;20029;-74
2022/09/18 00:16:00;;;;;;;16.13;1.92;;;;;;;;;;5072202;28;20028;-75
2022/09/18 00:18:26;;;;;;;14.38;2.47;;;;;;;;;;5071894;28;20024;-75
2022/09/18 00:20:52;;;;;;;14.77;3.00;;;;;;;;;;5072371;28;20051;-75
2022/09/18 00:23:18;;;;;;;11.05;1.85;;;;;;;;;;5071903;28;20036;-75
2022/09/18 00:25:44;;;;;;;12.35;2.97;;;;;;;;;;5072575;28;20082;-75
2022/09/18 00:28:11;;;;;;;10.50;2.63;;;;;;;;;;5072797;28;20495;-74
2022/09/18 00:30:37;;;;;;;12.02;2.42;;;;;;;;;;5071780;28;20024;-74
2022/09/18 00:33:03;;;;;;;12.95;2.40;;;;;;;;;;5072681;28;20040;-75
2022/09/18 00:35:29;;;;;;;14.63;2.38;;;;;;;;;;5070243;28;20475;-75
2022/09/18 00:37:55;;;;;;;12.32;2.75;;;;;;;;;;5052168;28;20091;-75
2022/09/18 00:40:21;;;;;;;8.05;1.77;;;;;;;;;;5065842;28;20028;-75
2022/09/18 00:42:47;;;;;;;12.27;1.98;;;;;;;;;;5071013;28;20490;-75
2022/09/18 00:45:13;;;;;;;11.48;2.75;;;;;;;;;;5072057;28;20046;-75
2022/09/18 00:47:47;;;;;;;11.75;2.72;;;;;;;;;;5071622;28;20025;-75
2022/09/18 00:50:13;;;;;;;11.82;2.22;;;;;;;;;;5071496;28;20036;-76
2022/09/18 00:52:48;;;;;;;13.98;2.60;;;;;;;;;;5072066;28;20043;-76
2022/09/18 00:55:14;;;;;;;16.30;3.13;;;;;;;;;;5071363;28;20052;-75
2022/09/18 00:57:44;;;;;;;10.00;2.90;;;;;;;;;;5071534;28;20049;-76
2022/09/18 01:00:13;;;;;;;9.43;2.35;;;;;;;;;;5071647;28;20047;-76
2022/09/18 01:02:40;;;;;;;14.53;2.53;;;;;;;;;;5071264;28;20066;-74
2022/09/18 01:05:07;;;;;;;9.00;1.83;;;;;;;;;;5071794;28;20028;-74
2022/09/18 01:07:34;;;;;;;8.18;1.83;;;;;;;;;;5071656;28;20024;-74
2022/09/18 01:10:07;;;;;;;10.48;2.38;;;;;;;;;;5071264;28;20024;-74
2022/09/18 01:12:39;;;;;;;13.35;2.50;;;;;;;;;;5072353;28;20025;-74
2022/09/18 01:15:05;;;;;;;11.40;2.90;;;;;;;;;;5071268;28;20390;-75
2022/09/18 01:17:31;;;;;;;14.65;2.60;;;;;;;;;;5070545;28;20048;-74
2022/09/18 01:20:00;;;;;;;11.38;2.20;;;;;;;;;;5070061;28;20494;-74
2022/09/18 01:22:45;;;;;;;11.57;2.97;;;;;;;;;;5070627;28;20048;-75
2022/09/18 01:25:17;;;;;;;11.73;2.60;;;;;;;;;;5070444;28;20078;-75
2022/09/18 01:28:01;;;;;;;14.60;2.72;;;;;;;;;;5071333;28;20023;-75
2022/09/18 01:30:28;;;;;;;10.25;1.85;;;;;;;;;;5071298;28;20111;-75
2022/09/18 01:32:56;;;;;;;17.38;2.00;;;;;;;;;;5055381;28;20027;-75
2022/09/18 01:35:25;;;;;;;12.73;3.17;;;;;;;;;;5071317;28;20036;-74
2022/09/18 01:37:53;;;;;;;10.77;1.95;;;;;;;;;;5069680;28;20029;-75
2022/09/18 01:40:24;;;;;;;14.00;1.75;;;;;;;;;;5070289;28;20517;-76
2022/09/18 01:42:50;;;;;;;;;;;;;;;;;;5071348;28;20149;-76
2022/09/18 01:45:18;;;;;;;11.02;2.10;;;;;;;;;;5071252;28;20003;-75
2022/09/18 01:47:49;;;;;;;9.43;1.67;;;;;;;;;;5070985;28;20051;-76
2022/09/18 01:50:17;;;;;;;6.10;1.50;;;;;;;;;;5070664;28;20039;-75
2022/09/18 01:52:54;;;;;;;11.95;2.40;;;;;;;;;;5071111;28;20096;-75
2022/09/18 01:55:22;;;;;;;11.50;3.08;;;;;;;;;;5070880;28;20154;-75
2022/09/18 01:57:54;;;;;;;10.70;1.67;;;;;;;;;;5070232;28;20020;-75
2022/09/18 02:00:21;;;;;;;13.10;3.00;;;;;;;;;;5070773;28;20025;-75
2022/09/18 02:02:57;;;;;;;12.48;2.15;;;;;;;;;;5069303;28;20046;-76
2022/09/18 02:05:26;;;;;;;12.52;2.17;;;;;;;;;;5069412;28;20029;-75
2022/09/18 02:07:58;;;;;;;10.88;1.98;;;;;;;;;;5070606;28;20098;-75
2022/09/18 02:10:26;;;;;;;7.20;1.90;;;;;;;;;;5070241;28;20036;-75
2022/09/18 02:12:53;;;;;;;10.13;1.90;;;;;;;;;;5069835;28;20036;-76
2022/09/18 02:15:20;;;;;;;12.20;2.15;;;;;;;;;;5069287;28;20024;-76
2022/09/18 02:17:50;;;;;;;7.80;1.50;;;;;;;;;;5069933;28;20099;-76
2022/09/18 02:20:20;;;;;;;8.82;1.77;;;;;;;;;;5070167;28;20057;-75
2022/09/18 02:22:49;;;;;;;12.38;2.20;;;;;;;;;;5069925;28;20045;-75
2022/09/18 02:25:17;;;;;;;7.75;1.85;;;;;;;;;;5059947;28;20036;-75
2022/09/18 02:27:44;;;;;;;12.20;2.55;;;;;;;;;;5069145;28;20099;-76
2022/09/18 02:30:10;;;;;;;9.48;2.20;;;;;;;;;;5069673;28;20360;-75
2022/09/18 02:32:37;;;;;;;8.23;1.80;;;;;;;;;;5069828;28;20024;-75
2022/09/18 02:35:04;;;;;;;9.73;1.55;;;;;;;;;;5069790;28;20032;-75
2022/09/18 02:37:44;;;;;;;6.10;2.17;;;;;;;;;;5069724;28;20028;-75
2022/09/18 02:40:21;;;;;;;12.80;2.60;;;;;;;;;;5068833;28;20021;-75
2022/09/18 02:42:56;;;;;;;15.32;2.13;;;;;;;;;;5067370;28;20451;-76
2022/09/18 02:45:36;;;;;;;12.48;1.65;;;;;;;;;;5069021;28;20023;-75
2022/09/18 02:48:20;;;;;;;8.05;1.67;;;;;;;;;;5069471;28;20021;-75
2022/09/18 02:50:49;;;;;;;10.90;1.90;;;;;;;;;;5069244;28;20025;-76
2022/09/18 02:53:28;;;;;;;8.05;2.30;;;;;;;;;;5069435;28;20039;-76
2022/09/18 02:55:59;;;;;;;11.45;2.30;;;;;;;;;;5066872;28;20081;-76
2022/09/18 02:58:41;;;;;;;10.10;1.90;;;;;;;;;;5062005;28;20115;-76
2022/09/18 03:01:08;;;;;;;9.75;1.98;;;;;;;;;;5066956;28;20032;-76
2022/09/18 03:03:37;;;;;;;11.43;2.50;;;;;;;;;;5069208;28;20045;-77
2022/09/18 03:06:03;;;;;;;15.93;2.67;;;;;;;;;;5069170;28;20035;-77
2022/09/18 03:08:29;;;;;;;15.32;2.75;;;;;;;;;;5069337;28;20062;-76
2022/09/18 03:10:56;;;;;;;12.07;2.33;;;;;;;;;;5068401;28;20492;-77
2022/09/18 03:13:22;;;;;;;9.13;2.80;;;;;;;;;;5069487;28;20050;-76
2022/09/18 03:15:48;;;;;;;11.05;1.92;;;;;;;;;;5069270;28;20483;-76
2022/09/18 03:18:14;;;;;;;9.25;2.00;;;;;;;;;;5069079;28;20550;-76
2022/09/18 03:20:42;;;;;;;10.85;1.90;;;;;;;;;;5068963;28;20158;-76
2022/09/18 03:23:09;;;;;;;12.43;2.65;;;;;;;;;;5067304;28;20123;-76
2022/09/18 03:25:35;;;;;;;15.32;2.72;;;;;;;;;;5067731;28;20056;-75
2022/09/18 03:28:02;;;;;;;11.70;1.80;;;;;;;;;;5069161;28;20087;-76
2022/09/18 03:30:28;;;;;;;16.30;2.42;;;;;;;;;;5069067;28;20020;-77
2022/09/18 03:32:55;;;;;;;13.85;2.25;;;;;;;;;;5069450;28;20401;-77
2022/09/18 03:35:21;;;;;;;9.90;2.20;;;;;;;;;;5067985;28;20478;-77
2022/09/18 03:37:47;;;;;;;11.40;1.75;;;;;;;;;;5067813;28;20029;-77
2022/09/18 03:40:14;;;;;;;14.25;2.55;;;;;;;;;;5069107;28;20107;-77
2022/09/18 03:42:43;;;;;;;10.73;1.75;;;;;;;;;;5067856;28;20567;-76
2022/09/18 03:45:10;;;;;;;11.00;1.83;;;;;;;;;;5068305;28;20033;-77
2022/09/18 03:47:35;;;;;;;8.27;1.63;;;;;;;;;;5068210;28;20097;-77
2022/09/18 03:50:02;;;;;;;10.35;1.50;;;;;;;;;;5068562;28;20067;-77
2022/09/18 03:52:29;;;;;;;12.27;2.08;;;;;;;;;;5068820;28;20023;-77
2022/09/18 03:54:55;;;;;;;7.40;1.52;;;;;;;;;;5069287;28;20087;-78
2022/09/18 03:57:21;;;;;;;9.68;1.60;;;;;;;;;;5068595;28;20063;-77
2022/09/18 03:59:47;;;;;;;5.32;1.40;;;;;;;;;;5068505;28;20398;-77
2022/09/18 04:02:13;;;;;;;5.30;1.20;;;;;;;;;;5067770;28;20471;-77
2022/09/18 04:04:39;;;;;;;11.05;2.17;;;;;;;;;;5067320;28;20379;-77
2022/09/18 04:07:07;;;;;;;9.18;2.03;;;;;;;;;;5068703;28;20025;-77
2022/09/18 04:09:33;;;;;;;10.07;1.20;;;;;;;;;;5068369;28;20025;-77
2022/09/18 04:11:59;;;;;;;11.23;1.83;;;;;;;;;;5068769;28;20045;-76
2022/09/18 04:14:25;;;;;;;8.68;1.63;;;;;;;;;;5068678;28;20029;-77
2022/09/18 04:16:51;;;;;;;9.20;1.27;;;;;;;;;;5068725;28;20020;-77
2022/09/18 04:19:17;;;;;;;10.75;1.88;;;;;;;;;;5068252;28;20024;-77
2022/09/18 04:21:44;;;;;;;7.78;1.40;;;;;;;;;;5067934;28;20063;-77
2022/09/18 04:24:10;;;;;;;12.07;2.03;;;;;;;;;;5068809;28;20036;-77
2022/09/18 04:26:37;;;;;;;8.25;1.65;;;;;;;;;;5067045;28;20034;-76
2022/09/18 04:29:03;;;;;;;8.90;1.50;;;;;;;;;;5068071;28;20103;-77
2022/09/18 04:31:29;;;;;;;6.93;1.35;;;;;;;;;;5068331;28;20032;-76
2022/09/18 04:33:55;;;;;;;10.13;2.03;;;;;;;;;;5068173;28;20066;-75
2022/09/18 04:36:21;;;;;;;8.68;1.75;;;;;;;;;;5067400;28;20429;-76
2022/09/18 04:38:47;;;;;;;8.90;1.30;;;;;;;;;;5065377;28;20549;-76
2022/09/18 04:41:13;;;;;;;9.32;1.67;;;;;;;;;;5057461;28;20487;-76
2022/09/18 04:43:39;;;;;;;12.75;1.80;;;;;;;;;;5063636;28;20040;-76
2022/09/18 04:46:05;;;;;;;6.25;1.27;;;;;;;;;;5068613;28;20090;-77
2022/09/18 04:48:31;;;;;;;9.30;1.90;;;;;;;;;;5068777;28;20021;-77
2022/09/18 04:50:57;;;;;;;11.95;2.33;;;;;;;;;;5067462;28;20028;-77
2022/09/18 04:53:23;;;;;;;8.63;1.75;;;;;;;;;;5066886;28;20020;-77
2022/09/18 04:55:49;;;;;;;9.65;1.90;;;;;;;;;;5060209;28;20095;-77
2022/09/18 04:58:16;;;;;;;9.10;1.52;;;;;;;;;;5068117;28;20048;-77
2022/09/18 05:00:43;;;;;;;8.43;2.03;;;;;;;;;;5067461;28;20103;-77
2022/09/18 05:03:10;;;;;;;8.55;1.38;;;;;;;;;;5066574;28;20127;-77
2022/09/18 05:05:36;;;;;;;6.32;1.30;;;;;;;;;;5062199;28;20082;-76
2022/09/18 05:08:03;;;;;;;7.60;2.22;;;;;;;;;;5071847;28;20024;-76
2022/09/18 05:10:29;;;;;;;8.20;1.10;;;;;;;;;;5071941;28;20048;-76
2022/09/18 05:12:55;;;;;;;14.80;2.05;;;;;;;;;;5057637;28;20091;-76
2022/09/18 05:15:21;;;;;;;7.30;1.55;;;;;;;;;;5071442;28;20025;-75
2022/09/18 05:17:47;;;;;;;9.63;1.42;;;;;;;;;;5072018;28;20056;-76
2022/09/18 05:20:14;;;;;;;12.70;2.00;;;;;;;;;;5071276;28;20029;-76
2022/09/18 05:22:44;;;;;;;9.80;2.00;;;;;;;;;;5070746;28;20070;-77
2022/09/18 05:25:12;;;;;;;7.85;1.42;;;;;;;;;;5071071;28;20522;-77
2022/09/18 05:27:38;;;;;;;7.20;1.40;;;;;;;;;;5071487;28;20103;-75
2022/09/18 05:30:04;;;;;;;9.00;1.58;;;;;;;;;;5070731;28;20021;-74
2022/09/18 05:32:31;;;;;;;13.05;2.38;;;;;;;;;;5070911;28;20027;-76
2022/09/18 05:34:57;;;;;;;8.80;1.27;;;;;;;;;;5070912;28;20036;-76
2022/09/18 05:37:23;;;;;;;5.68;1.30;;;;;;;;;;5055026;28;20462;-76
2022/09/18 05:39:49;;;;;;;9.57;1.45;;;;;;;;;;5060554;28;20059;-75
2022/09/18 05:42:15;;;;;;;10.38;1.55;;;;;;;;;;5068075;28;20458;-76
2022/09/18 05:44:41;;;;;;;10.77;1.92;;;;;;;;;;5065162;28;20060;-76
2022/09/18 05:47:07;;;;;;;6.05;1.30;;;;;;;;;;5071057;28;20033;-75
2022/09/18 05:49:33;;;;;;;7.97;1.38;;;;;;;;;;5070274;28;20020;-76
2022/09/18 05:51:59;;;;;;;11.20;1.63;;;;;;;;;;5070435;28;20054;-76
2022/09/18 05:54:25;;;;;;;6.15;1.40;;;;;;;;;;5070886;28;20067;-76
2022/09/18 05:56:52;;;;;;;6.03;1.45;;;;;;;;;;5070712;28;20042;-78
2022/09/18 05:59:18;;;;;;;9.70;1.40;;;;;;;;;;5070480;28;20050;-76
2022/09/18 06:01:44;;;;;;;7.93;1.60;;;;;;;;;;5070390;28;20016;-76
2022/09/18 06:04:11;;;;;;;8.48;1.50;;;;;;;;;;5069918;28;20083;-76
2022/09/18 06:06:37;;;;;;;7.40;1.35;;;;;;;;;;5069054;28;20399;-75
2022/09/18 06:09:03;;;;;;;7.63;1.50;;;;;;;;;;5070440;28;20028;-76
2022/09/18 06:11:29;;;;;;;4.25;1.00;;;;;;;;;;5068952;28;20024;-75
2022/09/18 06:13:55;;;;;;;5.28;1.10;;;;;;;;;;5069184;28;20514;-76
2022/09/18 06:16:21;;;;;;;7.80;1.23;;;;;;;;;;5070274;28;20070;-75
2022/09/18 06:18:47;;;;;;;7.22;1.30;;;;;;;;;;5070705;28;20111;-76
2022/09/18 06:21:13;;;;;;;8.48;1.30;;;;;;;;;;5069506;28;20052;-76
2022/09/18 06:23:41;;;;;;;9.32;1.25;;;;;;;;;;5069907;28;20057;-76
2022/09/18 06:26:07;;;;;;;4.95;0.82;;;;;;;;;;5070818;28;20513;-76
2022/09/18 06:28:34;;;;;;;4.78;1.10;;;;;;;;;;5067250;28;20033;-75
2022/09/18 06:31:00;;;;;;;4.60;0.90;;;;;;;;;;5057075;28;20479;-75
2022/09/18 06:33:30;;;;;;;6.82;1.08;;;;;;;;;;5070407;28;20058;-76
2022/09/18 06:35:57;;;;;;;6.88;1.10;;;;;;;;;;5068984;28;20044;-75
2022/09/18 06:38:23;;;;;;;7.18;1.25;;;;;;;;;;5060779;28;20024;-76
2022/09/18 06:40:52;;;;;;;9.23;1.25;;;;;;;;;;5065225;28;20047;-75
2022/09/18 06:43:19;;;;;;;7.40;1.33;;;;;;;;;;5066653;28;20479;-76
2022/09/18 06:45:51;;;;;;;9.10;1.35;;;;;;;;;;5055266;28;20028;-77
2022/09/18 06:48:17;;;;;;;5.70;1.35;;;;;;;;;;5068673;28;20025;-76
2022/09/18 06:50:43;;;;;;;5.53;1.00;;;;;;;;;;5070029;28;20078;-76
2022/09/18 06:53:09;;;;;;;9.88;1.35;;;;;;;;;;5069541;28;20047;-76
2022/09/18 06:55:35;;;;;;;7.85;0.90;;;;;;;;;;5069571;28;20117;-76
2022/09/18 06:58:01;;;;;;;4.28;1.08;;;;;;;;;;5064779;28;20082;-77
2022/09/18 07:00:27;;;;;;;7.63;1.00;;;;;;;;;;5069426;28;20081;-77
2022/09/18 07:03:00;;;;;;;5.68;1.27;;;;;;;;;;5066379;28;20029;-76
2022/09/18 07:05:28;;;;;;;6.10;1.60;;;;;;;;;;5063215;28;20036;-75
2022/09/18 07:07:54;;;;;;;7.50;1.13;;;;;;;;;;5069381;28;20043;-76
2022/09/18 07:10:20;;;;;;;8.38;1.30;;;;;;;;;;5067667;28;20479;-76
2022/09/18 07:12:47;;;;;;;5.93;1.23;;;;;;;;;;5064289;28;20035;-75
2022/09/18 07:15:17;;;;;;;4.57;1.00;;;;;;;;;;5069288;28;20083;-76
2022/09/18 07:17:43;;;;;;;8.07;1.60;;;;;;;;;;5067626;28;20017;-75
2022/09/18 07:20:10;;;;;;;9.45;1.33;;;;;;;;;;5069230;28;20028;-75
2022/09/18 07:22:36;;;;;;;6.22;1.52;;;;;;;;;;5067935;28;20048;-76
2022/09/18 07:25:03;;;;;;;6.03;1.75;;;;;;;;;;5066686;28;20089;-76
2022/09/18 07:27:29;;;;;;;7.40;1.00;;;;;;;;;;5075219;28;20024;-75
2022/09/18 07:29:55;;;;;;;4.82;1.60;;;;;;;;;;5077073;28;20043;-76
2022/09/18 07:32:22;;;;;;;8.35;1.38;;;;;;;;;;5086101;28;20098;-76
2022/09/18 07:34:48;;;;;;;4.40;1.13;;;;;;;;;;5051019;28;20483;-76
2022/09/18 07:37:15;;;;;;;6.18;1.40;;;;;;;;;;5069194;28;20047;-75
2022/09/18 07:39:42;;;;;;;7.35;1.48;;;;;;;;;;5068083;28;20447;-76
2022/09/18 07:42:08;;;;;;;8.85;1.70;;;;;;;;;;5067253;28;20028;-75
2022/09/18 07:44:35;;;;;;;6.50;1.27;;;;;;;;;;5067252;28;20028;-75
2022/09/18 07:47:01;;;;;;;4.65;1.08;;;;;;;;;;5066959;28;20037;-75
2022/09/18 07:49:27;;;;;;;5.88;1.38;;;;;;;;;;5066917;28;20033;-76
2022/09/18 07:52:00;;;;;;;10.25;1.75;;;;;;;;;;5065995;28;20024;-78
2022/09/18 07:54:27;;;;;;;8.70;1.50;;;;;;;;;;5065501;28;20044;-75
2022/09/18 07:56:53;;;;;;;8.52;1.83;;;;;;;;;;5067367;28;20025;-74
2022/09/18 07:59:19;;;;;;;9.15;2.10;;;;;;;;;;5062193;28;20569;-74
2022/09/18 08:01:45;;;;;;;6.68;2.03;;;;;;;;;;5055942;28;20025;-75
2022/09/18 08:04:11;;;;;;;11.65;1.48;;;;;;;;;;5060951;28;20047;-75
2022/09/18 08:06:37;;;;;;;6.50;1.25;;;;;;;;;;5059476;28;20133;-74
2022/09/18 08:09:03;;;;;;;13.63;2.90;;;;;;;;;;5054033;28;20158;-74
2022/09/18 08:11:34;;;;;;;7.43;1.80;;;;;;;;;;5050170;28;20036;-75
2022/09/18 08:14:00;;;;;;;6.28;1.83;;;;;;;;;;5051373;28;20033;-76
2022/09/18 08:16:26;;;;;;;12.52;1.77;;;;;;;;;;5055235;28;20386;-76
2022/09/18 08:18:52;;;;;;;6.18;1.30;;;;;;;;;;5052394;28;20558;-75
2022/09/18 08:21:18;;;;;;;4.20;1.00;;;;;;;;;;5054044;28;20040;-75
2022/09/18 08:23:44;;;;;;;8.07;1.58;;;;;;;;;;5055355;28;20050;-76
2022/09/18 08:26:13;;;;;;;7.50;1.27;;;;;;;;;;5053073;28;20025;-76
2022/09/18 08:28:39;;;;;;;8.50;1.30;;;;;;;;;;5050916;28;20421;-76
2022/09/18 08:31:05;;;;;;;4.28;1.30;;;;;;;;;;5057631;28;20024;-74
2022/09/18 08:33:31;;;;;;;7.35;1.50;;;;;;;;;;5056201;28;20021;-73
2022/09/18 08:35:57;;;;;;;7.65;1.23;;;;;;;;;;5061418;28;20029;-75
2022/09/18 08:38:23;;;;;;;7.80;1.27;;;;;;;;;;5060109;28;20029;-75
2022/09/18 08:40:49;;;;;;;4.70;1.48;;;;;;;;;;5055777;28;20117;-75
2022/09/18 08:43:25;;;;;;;6.75;1.42;;;;;;;;;;5055756;28;20045;-74
2022/09/18 08:45:57;;;;;;;7.70;2.13;;;;;;;;;;5058024;28;20024;-75
2022/09/18 08:48:33;;;;;;;6.65;1.73;;;;;;;;;;5052955;28;20915;-75
2022/09/18 08:51:00;;;;;;;5.03;1.02;;;;;;;;;;5050822;28;20051;-75
2022/09/18 08:53:33;;;;;;;4.57;1.35;;;;;;;;;;5055648;28;20037;-74
2022/09/18 08:56:01;;;;;;;5.72;1.60;;;;;;;;;;5054916;28;20082;-75
2022/09/18 08:58:35;;;;;;;11.60;2.10;;;;;;;;;;5057158;28;20033;-75
2022/09/18 09:01:13;;;;;;;7.75;1.85;;;;;;;;;;5057556;28;20063;-74
2022/09/18 09:03:43;;;;;;;7.57;1.88;;;;;;;;;;5058192;28;20482;-75
2022/09/18 09:06:24;;;;;;;7.10;1.60;;;;;;;;;;5059657;28;20712;-75
2022/09/18 09:09:19;;;;;;;5.13;1.58;;;;;;;;;;5054698;28;20056;-75
2022/09/18 09:12:01;;;;;;;5.63;1.38;;;;;;;;;;5057026;28;20036;-75
2022/09/18 09:14:46;;;;;;;6.55;2.33;;;;;;;;;;5052059;28;20523;-75
2022/09/18 09:17:30;;;;;;;7.78;1.85;;;;;;;;;;5049570;28;20082;-75
2022/09/18 09:20:15;;;;;;;6.85;1.67;;;;;;;;;;5053265;28;20073;-76
2022/09/18 09:22:41;;;;;;;5.38;1.60;;;;;;;;;;5054923;28;20047;-74
2022/09/18 09:25:13;;;;;;;8.98;2.25;;;;;;;;;;5054854;28;20033;-76
2022/09/18 09:27:44;;;;;;;7.38;1.95;;;;;;;;;;5052367;28;20048;-76
2022/09/18 09:30:15;;;;;;;7.18;1.88;;;;;;;;;;5053150;28;20119;-76
2022/09/18 09:32:46;;;;;;;8.13;1.70;;;;;;;;;;5054072;28;20845;-75
2022/09/18 09:35:21;;;;;;;6.40;1.40;;;;;;;;;;5056872;28;20040;-76
2022/09/18 09:37:48;;;;;;;8.50;2.30;;;;;;;;;;5055431;28;20055;-76
2022/09/18 09:40:14;;;;;;;7.55;2.15;;;;;;;;;;5053724;28;20029;-76
2022/09/18 09:42:47;;;;;;;6.82;2.22;;;;;;;;;;5055151;28;20100;-77
2022/09/18 09:45:18;;;;;;;8.52;2.22;;;;;;;;;;5055417;28;20546;-77
2022/09/18 09:47:56;;;;;;;9.25;1.88;;;;;;;;;;5052945;28;20150;-76
2022/09/18 09:50:26;;;;;;;12.82;3.63;;;;;;;;;;5052608;28;20147;-77
2022/09/18 09:52:55;;;;;;;8.52;2.25;;;;;;;;;;5055242;28;21234;-75
2022/09/18 09:55:29;;;;;;;7.95;2.00;;;;;;;;;;5055418;28;20078;-74
2022/09/18 09:58:13;;;;;;;6.35;1.52;;;;;;;;;;5056545;28;20044;-74
2022/09/18 10:00:59;;;;;;;7.50;1.60;;;;;;;;;;5053170;28;20108;-74
2022/09/18 10:03:31;;;;;;;5.78;1.65;;;;;;;;;;5054933;28;20062;-75
2022/09/18 10:06:12;;;;;;;4.20;1.45;;;;;;;;;;5049249;28;20031;-75
2022/09/18 10:08:41;;;;;;;6.68;1.10;;;;;;;;;;5048493;28;20828;-75
2022/09/18 10:11:10;;;;;;;4.45;1.00;;;;;;;;;;5053352;28;20103;-75
2022/09/18 10:13:57;;;;;;;5.70;1.52;;;;;;;;;;5049130;28;20039;-75
2022/09/18 10:16:33;;;;;;;4.93;1.60;;;;;;;;;;5049572;28;20078;-75
2022/09/18 10:18:59;;;;;;;3.63;1.13;;;;;;;;;;5052784;28;20449;-76
2022/09/18 10:21:28;;;;;;;4.40;1.23;;;;;;;;;;5053729;28;20511;-75
2022/09/18 10:23:57;;;;;;;5.43;1.50;;;;;;;;;;5053562;28;20041;-75
2022/09/18 10:26:25;;;;;;;10.53;4.33;;;;;;;;;;5049994;28;20025;-76
2022/09/18 10:28:51;;;;;;;8.40;2.13;;;;;;;;;;5051875;28;20479;-75
2022/09/18 10:31:17;;;;;;;7.47;1.80;;;;;;;;;;5048114;28;20044;-75
2022/09/18 10:33:45;;;;;;;7.68;1.38;;;;;;;;;;5051508;28;20499;-75
2022/09/18 10:36:18;;;;;;;5.57;1.30;;;;;;;;;;5055260;28;20051;-76
2022/09/18 10:38:44;;;;;;;6.45;1.95;;;;;;;;;;5051449;28;21365;-74
2022/09/18 10:41:26;;;;;;;7.75;1.35;;;;;;;;;;5055158;28;20064;-75
2022/09/18 10:43:54;;;;;;;6.55;1.70;;;;;;;;;;5054465;28;20045;-75
2022/09/18 10:46:25;;;;;;;4.45;1.77;;;;;;;;;;5053992;28;20028;-75
2022/09/18 10:48:51;;;;;;;3.88;0.93;;;;;;;;;;5055450;28;20817;-75
2022/09/18 10:51:21;;;;;;;6.57;1.83;;;;;;;;;;5057882;28;20103;-76
2022/09/18 10:54:00;;;;;;;8.20;1.73;;;;;;;;;;5054069;28;20506;-74
2022/09/18 10:56:26;;;;;;;5.80;1.67;;;;;;;;;;5057610;28;20503;-75
2022/09/18 10:58:52;;;;;;;5.32;1.02;;;;;;;;;;5053212;28;20032;-76
2022/09/18 11:01:18;;;;;;;7.55;1.77;;;;;;;;;;5055824;28;20369;-75
2022/09/18 11:03:46;;;;;;;5.85;1.30;;;;;;;;;;5054227;28;20039;-76
2022/09/18 11:06:15;;;;;;;7.32;1.35;;;;;;;;;;5055016;28;20079;-76
2022/09/18 11:08:43;;;;;;;3.95;1.15;;;;;;;;;;5056195;28;20539;-75
2022/09/18 11:11:19;;;;;;;3.60;0.90;;;;;;;;;;5057758;28;20111;-76
2022/09/18 11:13:50;;;;;;;6.97;1.17;;;;;;;;;;5051977;28;20040;-76
2022/09/18 11:16:27;;;;;;;8.27;1.55;;;;;;;;;;5052475;28;20041;-76
2022/09/18 11:19:19;;;;;;;7.28;1.90;;;;;;;;;;5054237;28;20028;-75
2022/09/18 11:21:46;;;;;;;4.65;1.40;;;;;;;;;;5053121;28;20055;-76
2022/09/18 11:24:30;;;;;;;5.65;1.50;;;;;;;;;;5054666;28;20613;-76
2022/09/18 11:26:58;;;;;;;8.57;1.25;;;;;;;;;;5058986;28;20095;-76
2022/09/18 11:29:31;;;;;;;6.03;1.35;;;;;;;;;;5054783;28;20028;-76
2022/09/18 11:31:57;;;;;;;5.43;0.75;;;;;;;;;;5056599;28;20032;-77
2022/09/18 11:34:32;;;;;;;6.65;1.33;;;;;;;;;;5052756;28;20020;-77
2022/09/18 11:37:00;;;;;;;7.88;1.23;;;;;;;;;;5053420;28;20048;-75
2022/09/18 11:39:28;;;;;;;5.97;1.30;;;;;;;;;;5052764;28;20028;-77
2022/09/18 11:41:55;;;;;;;10.27;1.92;;;;;;;;;;5055499;28;20037;-76
2022/09/18 11:44:23;;;;;;;5.05;1.33;;;;;;;;;;5058499;28;20360;-76
2022/09/18 11:47:03;;;;;;;7.90;1.92;;;;;;;;;;5054348;28;20048;-76
2022/09/18 11:49:49;;;;;;;6.03;1.53;;;;;;;;;;5052131;28;20029;-76
2022/09/18 11:52:21;;;;;;;4.90;1.08;;;;;;;;;;5051888;28;20460;-75
2022/09/18 11:54:56;;;;;;;6.32;1.35;;;;;;;;;;5054492;28;20112;-75
2022/09/18 11:57:29;;;;;;;6.18;1.20;;;;;;;;;;5052111;28;20025;-74
2022/09/18 12:00:03;;;;;;;6.32;1.25;;;;;;;;;;5051964;28;20029;-75
2022/09/18 12:02:41;;;;;;;7.57;1.38;;;;;;;;;;5058844;28;20475;-76
2022/09/18 12:05:37;;;;;;;9.68;1.73;;;;;;;;;;5054828;28;20029;-75
2022/09/18 12:08:12;;;;;;;11.80;2.75;;;;;;;;;;5050808;28;20593;-75
2022/09/18 12:10:54;;;;;;;9.15;1.33;;;;;;;;;;5059547;28;20035;-75
2022/09/18 12:13:26;;;;;;;7.57;1.30;;;;;;;;;;5055746;28;20032;-76
2022/09/18 12:15:58;;;;;;;6.50;1.45;;;;;;;;;;5053904;28;20029;-74
2022/09/18 12:18:43;;;;;;;8.35;1.63;;;;;;;;;;5057946;28;20029;-75
2022/09/18 12:21:13;;;;;;;5.78;1.70;;;;;;;;;;5057650;28;20403;-74
2022/09/18 12:23:39;;;;;;;5.20;1.35;;;;;;;;;;5057351;28;20064;-78
2022/09/18 12:26:10;;;;;;;4.05;1.05;;;;;;;;;;5056069;28;20058;-75
2022/09/18 12:28:42;;;;;;;8.20;1.65;;;;;;;;;;5055018;28;20116;-77
2022/09/18 12:31:16;;;;;;;6.88;1.67;;;;;;;;;;5055197;28;20027;-76
2022/09/18 12:33:58;;;;;;;8.07;1.33;;;;;;;;;;5058201;28;20082;-76
2022/09/18 12:36:27;;;;;;;7.88;1.40;;;;;;;;;;5057135;28;20029;-75
2022/09/18 12:39:08;;;;;;;6.43;1.42;;;;;;;;;;5055002;28;20028;-75
2022/09/18 12:41:47;;;;;;;7.20;2.60;;;;;;;;;;5056904;28;20511;-75
2022/09/18 12:44:13;;;;;;;6.13;1.55;;;;;;;;;;5058079;28;20037;-75
2022/09/18 12:46:42;;;;;;;5.53;1.20;;;;;;;;;;5052059;28;20059;-74
2022/09/18 12:49:08;;;;;;;12.43;1.58;;;;;;;;;;5056467;28;20531;-75
2022/09/18 12:51:39;;;;;;;9.32;1.63;;;;;;;;;;5058414;28;20127;-74
2022/09/18 12:54:24;;;;;;;8.50;1.90;;;;;;;;;;5057363;28;20029;-73
2022/09/18 12:56:51;;;;;;;9.75;1.80;;;;;;;;;;5057640;28;20077;-73
2022/09/18 12:59:35;;;;;;;6.07;1.30;;;;;;;;;;5058674;28;20048;-76
2022/09/18 13:02:02;;;;;;;4.60;1.67;;;;;;;;;;5054385;28;20095;-74
2022/09/18 13:04:33;;;;;;;6.88;1.80;;;;;;;;;;5054942;28;20040;-75
2022/09/18 13:07:02;;;;;;;7.18;1.73;;;;;;;;;;5054787;28;20106;-75
2022/09/18 13:09:40;;;;;;;11.77;2.65;;;;;;;;;;5055737;28;20101;-75
2022/09/18 13:12:13;;;;;;;5.15;1.52;;;;;;;;;;5059298;28;20028;-75
2022/09/18 13:14:47;;;;;;;8.85;1.85;;;;;;;;;;5059455;28;20025;-74
2022/09/18 13:17:15;;;;;;;8.40;1.58;;;;;;;;;;5059243;28;20102;-75
2022/09/18 13:19:54;;;;;;;8.25;1.10;;;;;;;;;;5056507;28;20055;-74
2022/09/18 13:22:22;;;;;;;7.40;1.30;;;;;;;;;;5050187;28;20040;-75
2022/09/18 13:24:50;;;;;;;5.05;1.00;;;;;;;;;;5057181;28;20044;-75
2022/09/18 13:27:18;;;;;;;7.95;2.00;;;;;;;;;;5051821;28;20665;-76
2022/09/18 13:29:55;;;;;;;8.00;2.05;;;;;;;;;;5052422;28;20566;-75
2022/09/18 13:32:30;;;;;;;4.55;1.45;;;;;;;;;;5052069;28;20390;-75
2022/09/18 13:34:58;;;;;;;7.43;1.92;;;;;;;;;;5058464;28;20090;-74
2022/09/18 13:37:25;;;;;;;3.55;1.20;;;;;;;;;;5054657;28;20028;-76
2022/09/18 13:39:56;;;;;;;8.90;1.58;;;;;;;;;;5057448;28;20028;-76
2022/09/18 13:42:23;;;;;;;;;;;;;;;;;;5055289;28;20033;-76
2022/09/18 13:44:49;;;;;;;7.03;1.45;;;;;;;;;;5059373;28;20014;-75
2022/09/18 13:47:17;;;;;;;3.10;0.82;;;;;;;;;;5059125;28;20215;-75
2022/09/18 13:49:46;;;;;;;4.30;0.98;;;;;;;;;;5059877;28;20102;-76
2022/09/18 13:52:31;;;;;;;4.32;0.90;;;;;;;;;;5057492;28;20032;-75
2022/09/18 13:55:00;;;;;;;7.20;1.10;;;;;;;;;;5056196;28;20094;-76
2022/09/18 13:57:31;;;;;;;5.03;1.23;;;;;;;;;;5055644;28;20024;-76
2022/09/18 14:00:00;;;;;;;5.82;1.40;;;;;;;;;;5052551;28;20047;-76
2022/09/18 14:02:26;;;;;;;4.80;1.10;;;;;;;;;;5057735;28;20028;-74
2022/09/18 14:04:59;;;;;;;3.10;0.77;;;;;;;;;;5055355;28;20036;-74
2022/09/18 14:07:25;;;;;;;9.68;1.60;;;;;;;;;;5053331;28;20368;-74
2022/09/18 14:10:05;;;;;;;5.70;0.88;;;;;;;;;;5053280;28;20087;-76
2022/09/18 14:12:32;;;;;;;6.97;1.33;;;;;;;;;;5052151;28;20108;-75
2022/09/18 14:15:10;;;;;;;3.58;0.82;;;;;;;;;;5052871;28;20039;-75
2022/09/18 14:17:37;;;;;;;4.28;1.30;;;;;;;;;;5052764;28;20021;-76
2022/09/18 14:20:18;;;;;;;4.18;1.02;;;;;;;;;;5052531;28;20020;-73
2022/09/18 14:22:46;;;;;;;4.10;0.80;;;;;;;;;;5053299;28;20048;-74
2022/09/18 14:25:13;;;;;;;3.60;1.20;;;;;;;;;;5051981;28;20057;-74
2022/09/18 14:27:49;;;;;;;3.75;0.77;;;;;;;;;;5054617;28;20028;-75
2022/09/18 14:30:18;;;;;;;3.78;0.82;;;;;;;;;;5055371;28;20064;-74
2022/09/18 14:32:51;;;;;;;3.15;0.60;;;;;;;;;;5055083;28;20056;-74
2022/09/18 14:35:29;;;;;;;4.20;0.70;;;;;;;;;;5052252;28;20040;-74
2022/09/18 14:37:56;;;;;;;4.53;1.25;;;;;;;;;;5056155;28;20021;-73
2022/09/18 14:40:23;;;;;;;5.03;0.95;;;;;;;;;;5055451;28;20033;-74
2022/09/18 14:42:50;;;;;;;7.05;1.10;;;;;;;;;;5054442;28;20036;-75
2022/09/18 14:45:27;;;;;;;2.15;0.65;;;;;;;;;;5059830;28;20086;-75
2022/09/18 14:47:54;;;;;;;10.13;6.13;;;;;;;;;;5057882;28;20680;-74
2022/09/18 14:50:21;;;;;;;4.75;1.63;;;;;;;;;;5055479;28;20021;-74
2022/09/18 14:52:47;;;;;;;8.27;1.95;;;;;;;;;;5054851;28;20025;-73
2022/09/18 14:55:41;;;;;;;5.60;1.20;;;;;;;;;;5056596;28;20491;-75